LDZD/ZAD METAR and TAF weather

Enter ICAO airport designator
Station Type Date Time Source
LDZD METAR 2020/09/22 17:00 UTC NOAA

LDZD 221700Z 01003KT 280V080 9999 FEW028 FEW032TCU BKN035 19/18 Q1014 TEMPO TSRA FEW030CB


Station Type Date Time Source
LDZD Decoded METAR 2020/09/22 17:00 UTC NOAA

Zadar / Zemunik, Croatia (LDZD) 44-06N 015-21E
Sep 22, 2020 - 01:00 PM EDT / 2020.09.22 1700 UTC
Wind: from the N (010 degrees) at 3 MPH (3 KT) (direction variable):0
Visibility: greater than 7 mile(s):0
Sky conditions: mostly cloudy
Weather: Cumulonimbus clouds, towering cumulus clouds observed
Temperature: 66 F (19 C)
Dew Point: 64 F (18 C)
Relative Humidity: 93%
Pressure (altimeter): 29.94 in. Hg (1014 hPa)
ob: LDZD 221700Z 01003KT 280V080 9999 FEW028 FEW032TCU BKN035 19/18 Q1014 TEMPO TSRA FEW030CB
cycle: 17

Station Type Date Time Source
LDZD TAF 2020/09/22 12:27 UTC NOAA

TAF LDZD 221125Z 2212/2312 14010KT 9999 SCT020 TX24/2212Z TN16/2302Z PROB40
TEMPO 2212/2312 4000 TSRA SCT020CB BKN030 PROB30
TEMPO 2215/2307 BKN010
BECMG 2221/2223 12005KT
BECMG 2308/2310 25007KT

Example: see airport list